Time;durP1;ratioP1;P1;durP2;ratioP2;P2;SDS_P1;SDS_P2;PMS_P1;PMS_P2;Temp;Humidity;BMP_temperature;BMP_pressure;BME280_temperature;BME280_humidity;BME280_pressure;Samples;Min_cycle;Max_cycle;Signal;HPM_P1;HPM_P2
2022/10/28 00:01:25;;;;;;;15.10;7.68;;;15.30;99.90;;;;;;5086451;28;20496;-83
2022/10/28 00:03:53;;;;;;;14.15;6.95;;;15.30;99.90;;;;;;5068519;28;20055;-83
2022/10/28 00:06:25;;;;;;;18.88;6.80;;;15.30;99.90;;;;;;5069111;28;20074;-83
2022/10/28 00:08:51;;;;;;;15.67;7.63;;;15.30;99.90;;;;;;5088004;28;20131;-83
2022/10/28 00:11:32;;;;;;;31.10;7.72;;;15.60;99.90;;;;;;5086639;28;20120;-83
2022/10/28 00:14:00;;;;;;;24.45;8.43;;;15.30;99.90;;;;;;5087900;28;20556;-83
2022/10/28 00:16:31;;;;;;;16.08;7.70;;;15.30;99.90;;;;;;5068533;28;20048;-83
2022/10/28 00:19:01;;;;;;;20.25;7.97;;;15.40;99.90;;;;;;5069207;28;20047;-83
2022/10/28 00:21:30;;;;;;;14.60;7.90;;;15.30;99.90;;;;;;5068877;28;20056;-83
2022/10/28 00:23:56;;;;;;;16.20;7.47;;;15.40;99.90;;;;;;5068847;28;20066;-83
2022/10/28 00:26:28;;;;;;;19.35;8.38;;;15.40;99.90;;;;;;5069603;28;20418;-83
2022/10/28 00:29:03;;;;;;;15.87;6.87;;;15.40;99.90;;;;;;5068163;28;20360;-83
2022/10/28 00:31:30;;;;;;;16.30;6.97;;;15.50;99.90;;;;;;5087525;28;20086;-83
2022/10/28 00:33:58;;;;;;;19.27;7.80;;;15.50;99.90;;;;;;5086283;28;20079;-83
2022/10/28 00:36:27;;;;;;;21.02;7.18;;;15.60;99.90;;;;;;5068028;28;20038;-83
2022/10/28 00:38:54;;;;;;;10.73;7.10;;;15.80;99.90;;;;;;5087630;28;20105;-83
2022/10/28 00:41:32;;;;;;;15.05;7.10;;;15.60;99.90;;;;;;5085743;28;20492;-83
2022/10/28 00:44:00;;;;;;;16.90;7.30;;;16.50;99.90;;;;;;5069274;28;20491;-83
2022/10/28 00:46:43;;;;;;;13.20;6.68;;;15.60;99.90;;;;;;5067786;28;20052;-83
2022/10/28 00:49:09;;;;;;;;;;;15.60;99.90;;;;;;5069086;28;20048;-83
2022/10/28 00:51:35;;;;;;;17.80;7.20;;;15.50;99.90;;;;;;5068884;28;20443;-83
2022/10/28 00:54:03;;;;;;;18.75;7.47;;;15.50;99.90;;;;;;5067482;28;20339;-83
2022/10/28 00:56:32;;;;;;;15.38;7.63;;;15.50;99.90;;;;;;5087342;28;20116;-84
2022/10/28 00:59:01;;;;;;;16.15;7.15;;;16.10;99.90;;;;;;5066811;28;20040;-83
2022/10/28 01:01:27;;;;;;;11.75;7.40;;;15.40;99.90;;;;;;5068435;28;20044;-84
2022/10/28 01:03:55;;;;;;;20.95;9.27;;;15.40;99.90;;;;;;5067830;28;20487;-83
2022/10/28 01:06:22;;;;;;;19.90;7.75;;;15.40;99.90;;;;;;5067746;28;20064;-83
2022/10/28 01:08:47;;;;;;;15.80;7.10;;;15.40;99.90;;;;;;5086591;28;20054;-83
2022/10/28 01:11:39;;;;;;;14.10;7.82;;;15.30;99.90;;;;;;5085448;28;20042;-83
2022/10/28 01:14:31;;;;;;;17.85;8.27;;;15.30;99.90;;;;;;5031261;28;20074;-84
2022/10/28 01:16:57;;;;;;;18.40;7.50;;;15.20;99.90;;;;;;5068233;28;20516;-84
2022/10/28 01:19:47;;;;;;;16.02;8.20;;;15.20;99.90;;;;;;5067246;28;20178;-84
2022/10/28 01:22:24;;;;;;;13.13;7.32;;;15.10;99.90;;;;;;5069201;28;20051;-83
2022/10/28 01:24:50;;;;;;;17.25;8.35;;;15.10;99.90;;;;;;5066859;28;20471;-83
2022/10/28 01:27:36;;;;;;;17.65;7.97;;;15.00;99.90;;;;;;5067833;28;20047;-84
2022/10/28 01:30:07;;;;;;;21.45;8.90;;;15.10;99.90;;;;;;5067802;28;20036;-83
2022/10/28 01:32:44;;;;;;;16.98;8.68;;;15.00;99.90;;;;;;5066421;28;20051;-84
2022/10/28 01:35:18;;;;;;;27.63;8.40;;;15.00;99.90;;;;;;5068333;28;20048;-84
2022/10/28 01:38:25;;;;;;;21.80;8.02;;;15.00;99.90;;;;;;5066729;28;20051;-83
2022/10/28 01:41:27;;;;;;;19.60;8.27;;;14.90;99.90;;;;;;5067085;28;20048;-83
2022/10/28 01:44:02;;;;;;;15.15;7.70;;;14.80;99.90;;;;;;5068232;28;20055;-84
2022/10/28 01:46:37;;;;;;;21.35;8.27;;;14.80;99.90;;;;;;5049820;28;20055;-84
2022/10/28 01:49:21;;;;;;;15.40;6.80;;;14.70;99.90;;;;;;5067210;28;20040;-84
2022/10/28 01:51:52;;;;;;;15.18;8.93;;;14.60;99.90;;;;;;5051665;28;20121;-83
2022/10/28 01:54:23;;;;;;;19.90;7.30;;;14.60;99.90;;;;;;5049378;28;20091;-83
2022/10/28 01:56:51;;;;;;;17.92;8.63;;;14.50;99.90;;;;;;5068078;28;20131;-84
2022/10/28 01:59:25;;;;;;;14.68;7.35;;;14.50;99.90;;;;;;5067129;28;20380;-83
2022/10/28 02:01:51;;;;;;;13.48;7.18;;;14.40;99.90;;;;;;5050690;28;20090;-84
2022/10/28 02:04:16;;;;;;;18.38;7.35;;;14.30;99.90;;;;;;5068330;28;20035;-83
2022/10/28 02:06:45;;;;;;;15.63;7.90;;;14.30;99.90;;;;;;5066716;28;20407;-83
2022/10/28 02:09:29;;;;;;;17.10;7.88;;;14.30;99.90;;;;;;5051708;28;20071;-83
2022/10/28 02:12:18;;;;;;;17.90;8.27;;;14.30;99.90;;;;;;5066095;28;20044;-83
2022/10/28 02:15:05;;;;;;;17.90;7.60;;;14.30;99.90;;;;;;5066834;28;20089;-83
2022/10/28 02:18:00;;;;;;;17.73;7.85;;;14.20;99.90;;;;;;5067792;28;20047;-84
2022/10/28 02:20:38;;;;;;;16.92;8.50;;;14.10;99.90;;;;;;5066161;28;20036;-84
2022/10/28 02:23:27;;;;;;;17.33;8.05;;;14.10;99.90;;;;;;5067301;28;20048;-84
2022/10/28 02:26:19;;;;;;;16.48;7.72;;;14.00;99.90;;;;;;5066584;28;20114;-84
2022/10/28 02:28:53;;;;;;;16.00;8.00;;;14.00;99.90;;;;;;5066211;28;20562;-84
2022/10/28 02:31:30;;;;;;;18.67;9.15;;;14.00;99.90;;;;;;5067039;28;20044;-83
2022/10/28 02:34:01;;;;;;;17.83;8.18;;;14.00;99.90;;;;;;5049928;28;20097;-83
2022/10/28 02:36:32;;;;;;;16.50;8.07;;;13.90;99.90;;;;;;5049571;28;20131;-83
2022/10/28 02:38:59;;;;;;;18.92;8.05;;;13.80;99.90;;;;;;5067563;28;20444;-83
2022/10/28 02:41:47;;;;;;;17.15;9.20;;;14.10;99.90;;;;;;5065962;28;20048;-83
2022/10/28 02:44:27;;;;;;;16.13;8.98;;;13.70;99.90;;;;;;5067312;28;20381;-84
2022/10/28 02:46:57;;;;;;;19.98;10.45;;;14.00;99.90;;;;;;5070778;28;20110;-84
2022/10/28 02:49:25;;;;;;;26.98;11.40;;;13.70;99.90;;;;;;5053745;28;20044;-83
2022/10/28 02:51:55;;;;;;;23.63;11.82;;;13.70;99.90;;;;;;5055113;28;20450;-84
2022/10/28 02:54:30;;;;;;;21.80;11.13;;;14.40;99.90;;;;;;5069697;28;20634;-83
2022/10/28 02:57:11;;;;;;;21.00;10.95;;;13.70;99.90;;;;;;5070759;28;20052;-83
2022/10/28 02:59:37;;;;;;;16.75;10.45;;;13.70;99.90;;;;;;5070180;28;20568;-84
2022/10/28 03:02:04;;;;;;;21.08;12.02;;;13.70;99.90;;;;;;5070746;28;20028;-83
2022/10/28 03:04:30;;;;;;;17.85;10.02;;;13.60;99.90;;;;;;5071301;28;20044;-83
2022/10/28 03:06:55;;;;;;;18.35;10.02;;;13.60;99.90;;;;;;5052564;28;20098;-83
2022/10/28 03:09:21;;;;;;;22.33;9.75;;;13.50;99.90;;;;;;5071570;28;20075;-83
2022/10/28 03:11:47;;;;;;;23.98;9.75;;;13.50;99.90;;;;;;5053103;28;20039;-83
2022/10/28 03:14:18;;;;;;;19.83;9.82;;;13.60;99.90;;;;;;5070877;28;20082;-83
2022/10/28 03:16:44;;;;;;;20.17;9.98;;;13.50;99.90;;;;;;5069825;28;20072;-83
2022/10/28 03:19:09;;;;;;;17.58;11.73;;;13.90;99.90;;;;;;5070171;28;20040;-84
2022/10/28 03:21:35;;;;;;;22.60;10.50;;;13.50;99.90;;;;;;5070860;28;20044;-83
2022/10/28 03:24:01;;;;;;;16.60;10.73;;;13.30;99.90;;;;;;5068893;28;20055;-83
2022/10/28 03:26:26;;;;;;;17.23;9.57;;;13.30;99.90;;;;;;5071134;28;20044;-83
2022/10/28 03:28:52;;;;;;;14.25;9.43;;;13.50;99.90;;;;;;5087197;28;20037;-84
2022/10/28 03:31:17;;;;;;;17.27;10.40;;;13.20;99.90;;;;;;5088497;28;20047;-83
2022/10/28 03:33:43;;;;;;;20.13;9.77;;;13.80;99.90;;;;;;5069138;28;20048;-84
2022/10/28 03:36:09;;;;;;;23.02;10.32;;;13.40;99.90;;;;;;5069613;28;20076;-83
2022/10/28 03:38:34;;;;;;;24.88;11.23;;;13.10;99.90;;;;;;5070853;28;20043;-83
2022/10/28 03:41:00;;;;;;;20.17;10.98;;;13.00;99.90;;;;;;5071267;28;20050;-83
2022/10/28 03:43:26;;;;;;;23.30;11.25;;;13.00;99.90;;;;;;5074150;28;20055;-84
2022/10/28 03:45:51;;;;;;;19.30;11.13;;;13.50;99.90;;;;;;5072401;28;20090;-83
2022/10/28 03:48:17;;;;;;;23.70;11.98;;;13.00;99.90;;;;;;5093472;28;20952;-83
2022/10/28 03:50:43;;;;;;;20.13;12.02;;;13.00;99.90;;;;;;5093402;28;20457;-83
2022/10/28 03:53:08;;;;;;;24.85;10.95;;;13.10;99.90;;;;;;5076065;28;20140;-84
2022/10/28 03:55:34;;;;;;;16.80;11.02;;;13.60;99.90;;;;;;5076901;28;20040;-84
2022/10/28 03:58:00;;;;;;;18.00;10.73;;;13.00;99.90;;;;;;5076136;28;20048;-83
2022/10/28 04:00:27;;;;;;;20.70;11.52;;;13.00;99.90;;;;;;5074842;28;20072;-83
2022/10/28 04:02:53;;;;;;;21.60;11.32;;;13.10;99.90;;;;;;5108971;28;20047;-83
2022/10/28 04:05:19;;;;;;;22.27;12.02;;;12.90;99.90;;;;;;5111879;28;20032;-83
2022/10/28 04:07:46;;;;;;;22.65;11.07;;;13.00;99.90;;;;;;5092924;28;20039;-83
2022/10/28 04:10:12;;;;;;;20.92;12.82;;;13.00;99.90;;;;;;5094175;28;20036;-83
2022/10/28 04:12:38;;;;;;;26.58;13.90;;;13.10;99.90;;;;;;5092465;28;20063;-83
2022/10/28 04:15:04;;;;;;;24.23;13.40;;;13.10;99.90;;;;;;5107051;28;20044;-83
2022/10/28 04:17:30;;;;;;;30.73;14.05;;;13.10;99.90;;;;;;5073313;28;20048;-83
2022/10/28 04:19:55;;;;;;;32.20;14.68;;;13.70;99.90;;;;;;5068067;28;20131;-83
2022/10/28 04:22:21;;;;;;;21.08;13.43;;;13.20;99.90;;;;;;5069840;28;20121;-83
2022/10/28 04:24:47;;;;;;;22.35;13.30;;;13.20;99.90;;;;;;5067695;28;20052;-83
2022/10/28 04:27:12;;;;;;;22.23;12.15;;;13.30;99.90;;;;;;5069953;28;20051;-83
2022/10/28 04:29:38;;;;;;;25.38;12.90;;;13.70;99.90;;;;;;5087146;28;20094;-83
2022/10/28 04:32:04;;;;;;;30.63;13.43;;;13.50;99.90;;;;;;5067726;28;20070;-83
2022/10/28 04:34:29;;;;;;;20.58;12.23;;;13.30;99.90;;;;;;5052003;28;20048;-83
2022/10/28 04:36:55;;;;;;;23.48;12.70;;;13.50;99.90;;;;;;5067069;28;20083;-84
2022/10/28 04:39:21;;;;;;;25.15;13.20;;;13.60;99.90;;;;;;5052134;28;20437;-83
2022/10/28 04:41:47;;;;;;;24.95;12.88;;;13.20;99.90;;;;;;5067001;28;20059;-83
2022/10/28 04:44:12;;;;;;;28.85;13.25;;;13.90;99.90;;;;;;5067950;28;20051;-84
2022/10/28 04:46:38;;;;;;;25.42;13.90;;;14.10;99.90;;;;;;5050022;28;20048;-84
2022/10/28 04:49:04;;;;;;;27.95;14.57;;;13.20;99.90;;;;;;5050747;28;20047;-84
2022/10/28 04:51:30;;;;;;;26.15;12.75;;;13.20;99.90;;;;;;5068461;28;20044;-84
2022/10/28 04:53:59;;;;;;;25.20;14.88;;;13.60;99.90;;;;;;5084890;28;20091;-84
2022/10/28 04:56:24;;;;;;;23.10;12.57;;;13.20;99.90;;;;;;5013434;28;1093324;-83
2022/10/28 04:58:50;;;;;;;23.55;13.60;;;13.20;99.90;;;;;;5050488;28;20376;-83
2022/10/28 05:01:15;;;;;;;21.92;13.55;;;14.00;99.90;;;;;;5068712;28;20123;-82
2022/10/28 05:03:41;;;;;;;27.83;13.77;;;13.80;99.90;;;;;;5084515;28;20043;-88
2022/10/28 05:06:07;;;;;;;28.67;14.68;;;13.20;99.90;;;;;;5034972;28;20047;-83
2022/10/28 05:08:33;;;;;;;31.67;14.65;;;13.60;99.90;;;;;;5067630;28;20075;-84
2022/10/28 05:10:58;;;;;;;31.70;15.52;;;13.20;99.90;;;;;;5067077;28;20291;-84
2022/10/28 05:13:24;;;;;;;27.70;14.35;;;13.20;99.90;;;;;;5052486;28;20073;-83
2022/10/28 05:15:50;;;;;;;26.15;14.45;;;13.20;99.90;;;;;;5050114;28;20048;-84
2022/10/28 05:18:16;;;;;;;30.15;14.57;;;13.20;99.90;;;;;;5068571;28;20366;-84
2022/10/28 05:20:42;;;;;;;33.15;14.15;;;13.20;99.90;;;;;;5050209;28;20051;-86
2022/10/28 05:23:08;;;;;;;26.73;14.18;;;13.20;99.90;;;;;;5068074;28;20434;-86
2022/10/28 05:25:34;;;;;;;31.05;14.10;;;13.20;99.90;;;;;;5067610;28;20084;-83
2022/10/28 05:28:00;;;;;;;32.15;14.93;;;13.20;99.90;;;;;;5066610;28;20083;-82
2022/10/28 05:30:27;;;;;;;26.08;14.52;;;13.20;99.90;;;;;;5068678;28;20048;-88
2022/10/28 05:33:03;;;;;;;25.13;14.73;;;13.70;99.90;;;;;;5050381;28;20036;-85
2022/10/28 05:35:29;;;;;;;23.77;13.68;;;13.10;99.90;;;;;;5068304;28;20055;-83
2022/10/28 05:37:55;;;;;;;23.40;14.07;;;13.20;99.90;;;;;;5050489;28;20079;-84
2022/10/28 05:40:21;;;;;;;27.52;14.15;;;13.80;99.90;;;;;;5051285;28;20380;-83
2022/10/28 05:42:47;;;;;;;19.75;13.48;;;13.10;99.90;;;;;;5067521;28;20040;-84
2022/10/28 05:45:13;;;;;;;28.45;13.75;;;13.10;99.90;;;;;;5050013;28;20088;-84
2022/10/28 05:47:46;;;;;;;20.23;13.15;;;13.10;99.90;;;;;;5068592;28;20089;-82
2022/10/28 05:50:14;;;;;;;27.48;13.38;;;13.00;99.90;;;;;;5049853;28;20436;-85
2022/10/28 05:52:48;;;;;;;24.33;14.20;;;13.10;99.90;;;;;;5050944;28;20085;-84
2022/10/28 05:55:14;;;;;;;26.23;13.52;;;13.00;99.90;;;;;;5049837;28;20043;-84
2022/10/28 05:57:40;;;;;;;26.83;14.57;;;13.00;99.90;;;;;;5050086;28;20052;-83
2022/10/28 06:00:06;;;;;;;28.70;14.77;;;13.00;99.90;;;;;;5084519;28;20048;-83
2022/10/28 06:02:32;;;;;;;34.33;15.10;;;13.00;99.90;;;;;;5065908;28;20059;-84
2022/10/28 06:04:58;;;;;;;22.70;14.00;;;13.00;99.90;;;;;;5068353;28;20048;-84
2022/10/28 06:07:23;;;;;;;29.92;14.60;;;12.90;99.90;;;;;;5066153;28;20451;-84
2022/10/28 06:09:49;;;;;;;24.17;14.75;;;13.40;99.90;;;;;;5067114;28;20075;-84
2022/10/28 06:12:16;;;;;;;30.92;14.55;;;13.10;99.90;;;;;;5065971;28;20054;-84
2022/10/28 06:14:41;;;;;;;27.85;15.30;;;12.90;99.90;;;;;;5067623;28;20127;-84
2022/10/28 06:17:07;;;;;;;25.67;15.05;;;13.10;99.90;;;;;;5050252;28;20508;-84
2022/10/28 06:19:33;;;;;;;32.95;15.68;;;12.80;99.90;;;;;;5065620;28;20048;-84
2022/10/28 06:21:58;;;;;;;23.92;14.10;;;13.20;99.90;;;;;;5086179;28;20043;-84
2022/10/28 06:24:24;;;;;;;30.60;15.70;;;12.80;99.90;;;;;;5082641;28;20044;-84
2022/10/28 06:26:50;;;;;;;27.23;13.82;;;13.80;99.90;;;;;;5067007;28;20052;-84
2022/10/28 06:29:15;;;;;;;30.15;17.38;;;13.30;99.90;;;;;;5049923;28;20040;-84
2022/10/28 06:31:42;;;;;;;26.77;15.63;;;13.40;99.90;;;;;;5066670;28;20407;-84
2022/10/28 06:34:11;;;;;;;29.73;15.13;;;13.00;99.90;;;;;;5066778;28;20048;-84
2022/10/28 06:36:38;;;;;;;35.33;14.85;;;12.70;99.90;;;;;;5082549;28;20135;-83
2022/10/28 06:39:04;;;;;;;35.38;13.68;;;12.70;99.90;;;;;;5052422;28;20452;-87
2022/10/28 06:41:30;;;;;;;28.40;14.60;;;12.80;99.90;;;;;;5066608;28;20044;-86
2022/10/28 06:43:55;;;;;;;24.83;14.90;;;12.70;99.90;;;;;;5071213;28;20125;-86
2022/10/28 06:46:21;;;;;;;31.02;16.00;;;12.80;99.90;;;;;;5056805;28;20058;-87
2022/10/28 06:48:47;;;;;;;22.58;14.18;;;12.80;99.90;;;;;;5041633;28;20043;-87
2022/10/28 06:51:13;;;;;;;25.67;15.30;;;12.80;99.90;;;;;;5071985;28;20076;-87
2022/10/28 06:53:38;;;;;;;28.13;14.82;;;12.90;99.90;;;;;;5071368;28;20330;-88
2022/10/28 06:56:05;;;;;;;29.23;15.60;;;12.80;99.90;;;;;;5071124;28;20583;-88
2022/10/28 06:58:30;;;;;;;26.52;15.13;;;12.90;99.90;;;;;;5084735;28;20434;-87
2022/10/28 07:00:56;;;;;;;31.92;15.30;;;12.90;99.90;;;;;;5051676;28;20040;-87
2022/10/28 07:03:22;;;;;;;26.60;15.27;;;13.60;99.90;;;;;;5067449;28;20044;-87
2022/10/28 07:05:50;;;;;;;27.35;15.18;;;12.70;99.90;;;;;;5068143;28;20893;-87
2022/10/28 07:08:16;;;;;;;28.48;13.82;;;13.10;99.90;;;;;;5049562;28;20057;-87
2022/10/28 07:10:41;;;;;;;28.75;14.95;;;13.10;99.90;;;;;;5050605;28;20047;-86
2022/10/28 07:13:07;;;;;;;34.53;13.82;;;13.20;99.90;;;;;;5051410;28;20048;-87
2022/10/28 07:15:33;;;;;;;26.75;15.07;;;13.30;99.90;;;;;;5065585;28;20379;-87
2022/10/28 07:17:58;;;;;;;29.52;14.07;;;13.30;99.90;;;;;;5067348;28;20067;-87
2022/10/28 07:20:26;;;;;;;36.80;14.80;;;13.50;99.90;;;;;;5065332;28;20189;-88
2022/10/28 07:22:58;;;;;;;22.45;12.80;;;13.50;99.90;;;;;;5066556;28;20094;-87
2022/10/28 07:25:25;;;;;;;28.95;13.05;;;13.60;99.90;;;;;;5049529;28;20044;-87
2022/10/28 07:27:50;;;;;;;29.48;12.48;;;13.70;99.90;;;;;;5049360;28;20073;-86
2022/10/28 07:30:16;;;;;;;30.30;12.65;;;13.80;99.90;;;;;;5034701;28;20434;-87
2022/10/28 07:32:42;;;;;;;28.05;11.88;;;14.00;99.90;;;;;;5069277;28;20519;-88
2022/10/28 07:35:08;;;;;;;23.13;12.90;;;14.10;99.90;;;;;;5070680;28;20098;-87
2022/10/28 07:37:34;;;;;;;20.95;12.20;;;14.50;99.90;;;;;;5052800;28;20101;-86
2022/10/28 07:39:59;;;;;;;21.75;10.43;;;14.20;99.90;;;;;;5053462;28;20487;-87
2022/10/28 07:42:25;;;;;;;28.70;10.73;;;14.30;99.90;;;;;;5036579;28;20048;-88
2022/10/28 07:44:51;;;;;;;30.55;11.02;;;14.50;99.90;;;;;;5052817;28;20040;-87
2022/10/28 07:47:18;;;;;;;25.83;10.55;;;14.50;99.90;;;;;;5054072;28;20048;-87
2022/10/28 07:49:44;;;;;;;21.95;10.25;;;14.50;99.90;;;;;;5068724;28;20050;-87
2022/10/28 07:52:09;;;;;;;21.30;9.30;;;15.20;99.90;;;;;;5070222;28;20409;-87
2022/10/28 07:54:35;;;;;;;19.45;10.00;;;14.70;99.90;;;;;;5052718;28;20077;-87
2022/10/28 07:57:01;;;;;;;25.48;9.38;;;14.80;99.90;;;;;;5069790;28;20585;-87
2022/10/28 07:59:26;;;;;;;17.55;8.60;;;14.90;99.90;;;;;;5035811;28;20409;-86
2022/10/28 08:01:52;;;;;;;18.50;8.23;;;15.00;99.90;;;;;;5053131;28;20043;-87
2022/10/28 08:04:18;;;;;;;22.05;8.13;;;15.20;99.90;;;;;;5070248;28;20495;-88
2022/10/28 08:06:44;;;;;;;25.08;8.63;;;15.30;99.90;;;;;;5069494;28;20090;-89
2022/10/28 08:09:09;;;;;;;18.77;7.50;;;15.30;99.90;;;;;;5058345;28;20051;-87
2022/10/28 08:11:35;;;;;;;17.27;7.75;;;15.40;99.90;;;;;;5072201;28;20138;-87
2022/10/28 08:14:01;;;;;;;15.52;6.90;;;15.40;99.90;;;;;;5056688;28;20040;-89
2022/10/28 08:16:27;;;;;;;19.52;7.45;;;15.60;99.90;;;;;;5070990;28;20127;-88
2022/10/28 08:18:55;;;;;;;22.85;6.85;;;15.60;99.90;;;;;;5053638;28;20048;-86
2022/10/28 08:21:22;;;;;;;17.67;7.07;;;15.80;99.90;;;;;;5070612;28;20055;-87
2022/10/28 08:23:47;;;;;;;15.13;6.72;;;15.90;99.90;;;;;;5068524;28;20090;-88
2022/10/28 08:26:14;;;;;;;14.27;6.20;;;15.90;99.90;;;;;;5070445;28;20044;-87
2022/10/28 08:28:40;;;;;;;19.90;7.13;;;16.10;99.90;;;;;;5068621;28;20044;-86
2022/10/28 08:31:11;;;;;;;20.73;6.82;;;16.20;99.90;;;;;;5069992;28;20138;-87
2022/10/28 08:33:39;;;;;;;18.25;6.88;;;16.30;99.90;;;;;;5068151;28;20470;-87
2022/10/28 08:36:06;;;;;;;19.85;7.03;;;16.30;99.90;;;;;;5069433;28;20040;-87
2022/10/28 08:38:32;;;;;;;17.50;7.15;;;16.40;99.90;;;;;;5069530;28;20052;-86
2022/10/28 08:41:27;;;;;;;17.55;6.80;;;16.50;99.90;;;;;;5068244;28;20130;-87
2022/10/28 08:44:29;;;;;;;19.42;6.30;;;16.50;99.90;;;;;;5041031;28;20048;-87
2022/10/28 08:47:27;;;;;;;11.07;5.25;;;16.60;99.90;;;;;;5069031;28;20044;-89
2022/10/28 08:49:57;;;;;;;16.40;5.68;;;16.70;99.90;;;;;;5051640;28;20506;-89
2022/10/28 08:52:23;;;;;;;20.52;6.05;;;16.80;99.90;;;;;;5069156;28;20051;-89
2022/10/28 08:54:53;;;;;;;16.60;5.82;;;16.80;99.90;;;;;;5067857;28;20044;-88
2022/10/28 08:57:44;;;;;;;15.45;6.47;;;16.90;99.90;;;;;;5068134;28;20060;-87
2022/10/28 09:00:23;;;;;;;14.07;5.68;;;17.00;99.90;;;;;;5038122;28;20048;-88
2022/10/28 09:03:29;;;;;;;15.32;6.00;;;17.10;99.90;;;;;;5067130;28;20046;-89
2022/10/28 09:06:06;;;;;;;14.25;6.20;;;17.20;99.90;;;;;;4987441;28;20058;-87
2022/10/28 09:08:40;;;;;;;18.45;5.95;;;17.20;99.90;;;;;;4991408;28;20152;-88
2022/10/28 09:11:35;;;;;;;16.85;5.57;;;17.30;99.90;;;;;;5043175;28;20060;-88
2022/10/28 09:14:28;;;;;;;26.48;6.45;;;17.30;99.90;;;;;;5051815;28;20044;-88
2022/10/28 09:17:00;;;;;;;11.23;5.93;;;17.40;99.90;;;;;;5068506;28;20071;-88
2022/10/28 09:19:47;;;;;;;18.83;5.40;;;17.40;99.90;;;;;;5066732;28;20044;-88
2022/10/28 09:22:23;;;;;;;14.52;6.35;;;17.40;99.90;;;;;;5068921;28;20040;-88
2022/10/28 09:24:55;;;;;;;15.90;5.97;;;17.40;99.90;;;;;;5050053;28;20044;-88
2022/10/28 09:28:03;;;;;;;14.55;6.10;;;17.40;99.90;;;;;;5067663;28;20093;-87
2022/10/28 09:30:45;;;;;;;20.05;5.35;;;17.50;99.90;;;;;;5018896;28;20368;-88
2022/10/28 09:33:35;;;;;;;15.27;4.28;;;17.50;99.90;;;;;;5050052;28;20487;-87
2022/10/28 09:36:04;;;;;;;24.10;6.30;;;17.60;99.90;;;;;;5067586;28;20052;-87
2022/10/28 09:38:34;;;;;;;17.98;5.50;;;17.60;99.90;;;;;;5067826;28;20503;-87
2022/10/28 09:41:18;;;;;;;14.18;6.03;;;17.60;99.90;;;;;;5050675;28;20399;-87
2022/10/28 09:43:55;;;;;;;15.13;5.13;;;17.60;99.90;;;;;;5068766;28;20125;-87
2022/10/28 09:46:24;;;;;;;13.15;5.60;;;17.70;99.90;;;;;;5066663;28;20044;-87
2022/10/28 09:48:57;;;;;;;20.40;4.97;;;17.70;99.90;;;;;;5050650;28;20135;-88
2022/10/28 09:51:23;;;;;;;15.18;5.22;;;17.70;99.90;;;;;;5051177;28;20185;-89
2022/10/28 09:53:56;;;;;;;15.00;5.22;;;17.70;99.90;;;;;;5066150;28;20126;-88
2022/10/28 09:56:22;;;;;;;;;;;18.00;99.90;;;;;;5052989;28;20472;-91
2022/10/28 09:58:48;;;;;;;14.73;5.03;;;17.70;99.90;;;;;;5051061;28;19927;-90
2022/10/28 10:01:16;;;;;;;14.30;5.22;;;17.70;99.90;;;;;;5069070;28;20040;-89
2022/10/28 10:03:44;;;;;;;16.95;5.00;;;17.80;99.90;;;;;;5054459;28;20471;-88
2022/10/28 10:06:26;;;;;;;12.13;5.30;;;17.80;99.90;;;;;;5070479;28;20050;-87
2022/10/28 10:08:54;;;;;;;10.80;4.10;;;17.80;99.90;;;;;;5053842;28;20044;-83
2022/10/28 10:11:43;;;;;;;12.73;4.88;;;17.90;99.90;;;;;;5049539;28;20135;-86
2022/10/28 10:14:13;;;;;;;16.38;4.85;;;17.90;99.90;;;;;;5067521;28;20050;-88
2022/10/28 10:16:45;;;;;;;14.60;4.40;;;18.00;99.90;;;;;;5050652;28;20050;-87
2022/10/28 10:19:11;;;;;;;18.35;4.78;;;18.00;99.90;;;;;;5050201;28;20085;-87
2022/10/28 10:21:50;;;;;;;12.60;5.00;;;18.10;99.90;;;;;;5067913;28;20047;-87
2022/10/28 10:24:31;;;;;;;14.07;4.75;;;18.10;99.90;;;;;;5065767;28;20051;-87
2022/10/28 10:27:20;;;;;;;17.23;5.38;;;18.20;99.90;;;;;;5050449;28;20048;-87
2022/10/28 10:29:50;;;;;;;15.07;5.78;;;18.30;99.90;;;;;;5067019;28;20071;-87
2022/10/28 10:32:20;;;;;;;16.70;5.00;;;18.30;99.90;;;;;;5050360;28;20051;-87
2022/10/28 10:34:53;;;;;;;12.77;4.38;;;18.40;99.90;;;;;;5068159;28;20578;-87
2022/10/28 10:37:21;;;;;;;17.77;5.20;;;18.50;99.90;;;;;;5066129;28;20090;-87
2022/10/28 10:40:04;;;;;;;13.25;4.68;;;18.50;99.90;;;;;;5050670;28;20655;-87
2022/10/28 10:42:30;;;;;;;14.73;5.00;;;18.60;99.90;;;;;;5050526;28;20047;-88
2022/10/28 10:45:07;;;;;;;15.25;5.32;;;18.70;99.90;;;;;;5083588;28;20078;-87
2022/10/28 10:47:33;;;;;;;15.40;4.55;;;18.60;99.90;;;;;;5067379;28;20462;-86
2022/10/28 10:50:28;;;;;;;10.65;4.57;;;18.70;99.90;;;;;;5083086;28;20044;-88
2022/10/28 10:52:57;;;;;;;14.13;4.93;;;18.70;99.90;;;;;;5067404;28;20040;-88
2022/10/28 10:55:32;;;;;;;10.27;4.22;;;18.80;99.90;;;;;;5051017;28;20079;-89
2022/10/28 10:57:58;;;;;;;16.23;4.55;;;18.90;99.90;;;;;;5050819;28;20083;-86
2022/10/28 11:00:30;;;;;;;12.00;4.97;;;19.00;99.90;;;;;;5052194;28;20036;-87
2022/10/28 11:02:58;;;;;;;12.60;4.40;;;19.10;99.90;;;;;;5066345;28;20066;-86
2022/10/28 11:05:24;;;;;;;14.77;5.18;;;19.20;99.90;;;;;;5068028;28;20093;-87
2022/10/28 11:07:50;;;;;;;13.63;5.07;;;19.30;99.90;;;;;;5054220;28;20428;-87
2022/10/28 11:10:26;;;;;;;23.30;5.32;;;19.30;99.90;;;;;;5071727;28;20097;-87
2022/10/28 11:12:57;;;;;;;20.13;5.90;;;19.20;99.90;;;;;;5071287;28;20043;-87
2022/10/28 11:15:26;;;;;;;11.18;5.10;;;19.20;99.90;;;;;;5070650;28;20112;-87
2022/10/28 11:18:10;;;;;;;12.63;5.30;;;19.20;99.90;;;;;;5055703;28;20047;-86
2022/10/28 11:21:02;;;;;;;12.48;5.10;;;19.30;99.90;;;;;;5071126;28;20347;-87
2022/10/28 11:23:35;;;;;;;16.88;5.20;;;19.40;99.90;;;;;;5071056;28;20429;-88
2022/10/28 11:26:08;;;;;;;23.20;5.22;;;19.40;99.90;;;;;;5056476;28;20050;-88
2022/10/28 11:29:01;;;;;;;16.60;5.88;;;19.50;99.90;;;;;;5070723;28;20051;-88
2022/10/28 11:32:00;;;;;;;19.42;5.88;;;19.50;99.90;;;;;;5071780;28;20554;-87
2022/10/28 11:34:44;;;;;;;16.77;4.93;;;19.60;99.90;;;;;;5055391;28;20047;-89
2022/10/28 11:37:33;;;;;;;17.00;4.97;;;19.60;99.90;;;;;;5071450;28;20495;-88
2022/10/28 11:39:59;;;;;;;17.50;5.07;;;19.70;99.90;;;;;;5072312;28;20040;-87
2022/10/28 11:42:50;;;;;;;19.92;4.78;;;19.80;99.90;;;;;;5073606;28;20131;-86
2022/10/28 11:45:54;;;;;;;18.92;4.68;;;19.90;99.90;;;;;;5035535;28;20149;-86
2022/10/28 11:48:20;;;;;;;13.77;4.55;;;19.90;99.90;;;;;;5029989;28;20511;-87
2022/10/28 11:51:21;;;;;;;14.57;4.63;;;19.90;99.90;;;;;;5070040;28;20048;-86
2022/10/28 11:54:13;;;;;;;19.40;5.90;;;19.90;99.90;;;;;;5039499;28;20515;-87
2022/10/28 11:56:58;;;;;;;19.77;5.47;;;20.00;99.90;;;;;;5049594;28;20602;-87
2022/10/28 11:59:42;;;;;;;14.63;5.28;;;20.10;99.90;;;;;;5069773;28;20048;-87
2022/10/28 12:02:32;;;;;;;17.27;5.85;;;20.10;99.90;;;;;;5069323;28;20127;-86
2022/10/28 12:05:04;;;;;;;18.77;4.55;;;20.30;99.90;;;;;;5072067;28;20089;-86
2022/10/28 12:07:49;;;;;;;10.73;4.47;;;20.40;99.90;;;;;;5086144;28;20113;-88
2022/10/28 12:10:41;;;;;;;10.90;4.05;;;20.50;99.90;;;;;;5088212;28;20144;-83
2022/10/28 12:13:40;;;;;;;17.15;4.53;;;20.50;99.90;;;;;;5054360;28;20048;-87
2022/10/28 12:16:11;;;;;;;12.32;4.05;;;20.60;99.90;;;;;;5069072;28;20495;-87
2022/10/28 12:19:00;;;;;;;16.00;5.22;;;20.50;99.90;;;;;;5070531;28;20087;-88
2022/10/28 12:21:46;;;;;;;16.83;4.72;;;20.50;99.90;;;;;;5070348;28;20052;-87
2022/10/28 12:24:20;;;;;;;23.50;5.35;;;20.50;99.90;;;;;;5069124;28;20059;-87
2022/10/28 12:26:50;;;;;;;15.63;4.30;;;20.50;99.90;;;;;;5053853;28;20145;-87
2022/10/28 12:29:36;;;;;;;15.23;4.28;;;20.50;99.90;;;;;;5052826;28;20126;-87
2022/10/28 12:32:19;;;;;;;12.77;4.60;;;20.40;99.90;;;;;;5069115;28;20055;-87
2022/10/28 12:34:50;;;;;;;21.35;5.28;;;20.50;99.90;;;;;;5071239;28;20051;-87
2022/10/28 12:38:04;;;;;;;25.77;4.40;;;20.40;99.90;;;;;;5072109;28;20574;-87
2022/10/28 12:41:05;;;;;;;13.60;4.60;;;20.30;99.90;;;;;;5012847;28;20139;-88
2022/10/28 12:43:40;;;;;;;17.23;4.50;;;20.30;99.90;;;;;;5059690;28;20099;-87
2022/10/28 12:46:27;;;;;;;18.67;5.20;;;20.20;99.90;;;;;;5079610;28;20069;-88
2022/10/28 12:48:58;;;;;;;16.38;4.28;;;20.20;99.90;;;;;;5079788;28;20051;-87
2022/10/28 12:51:36;;;;;;;19.88;5.15;;;20.70;99.90;;;;;;5064146;28;20065;-88
2022/10/28 12:54:20;;;;;;;15.88;4.75;;;20.10;99.90;;;;;;5080134;28;20052;-85
2022/10/28 12:56:53;;;;;;;16.02;4.82;;;20.10;99.90;;;;;;5079537;28;20603;-86
2022/10/28 12:59:38;;;;;;;11.50;4.60;;;20.10;99.90;;;;;;5074801;28;20047;-87